createdAt,value
2023-11-27T00:02:16.728Z,5.90
2023-11-27T00:04:45.277Z,5.89
2023-11-27T00:07:13.349Z,5.93
2023-11-27T00:09:41.364Z,5.91
2023-11-27T00:12:10.530Z,5.89
2023-11-27T00:14:39.983Z,5.88
2023-11-27T00:17:08.333Z,5.84
2023-11-27T00:19:36.478Z,5.81
2023-11-27T00:22:04.855Z,5.77
2023-11-27T00:24:32.828Z,5.74
2023-11-27T00:27:00.778Z,5.74
2023-11-27T00:29:29.568Z,5.76
2023-11-27T00:31:59.456Z,5.73
2023-11-27T00:34:27.412Z,5.72
2023-11-27T00:36:55.340Z,5.69
2023-11-27T00:39:23.349Z,5.66
2023-11-27T00:41:51.273Z,5.68
2023-11-27T00:44:19.228Z,5.67
2023-11-27T00:46:48.784Z,5.68
2023-11-27T00:49:19.910Z,5.70
2023-11-27T00:51:47.933Z,5.70
2023-11-27T00:54:15.878Z,5.71
2023-11-27T00:56:43.777Z,5.70
2023-11-27T00:59:11.723Z,5.70
2023-11-27T01:01:40.158Z,5.69
2023-11-27T01:04:08.385Z,5.66
2023-11-27T01:06:37.671Z,5.66
2023-11-27T01:09:07.646Z,5.65
2023-11-27T01:11:35.537Z,5.65
2023-11-27T01:14:03.543Z,5.66
2023-11-27T01:16:31.682Z,5.67
2023-11-27T01:18:59.880Z,5.70
2023-11-27T01:21:27.993Z,5.67
2023-11-27T01:23:57.597Z,5.68
2023-11-27T01:26:26.249Z,5.67
2023-11-27T01:28:54.408Z,5.64
2023-11-27T01:31:23.122Z,5.63
2023-11-27T01:33:52.269Z,5.62
2023-11-27T01:36:20.330Z,5.62
2023-11-27T01:38:48.298Z,5.58
2023-11-27T01:41:17.524Z,5.56
2023-11-27T01:43:46.299Z,5.56
2023-11-27T01:46:24.550Z,5.54
2023-11-27T01:48:54.399Z,5.48
2023-11-27T01:51:23.731Z,5.47
2023-11-27T01:53:53.079Z,5.43
2023-11-27T01:56:25.414Z,5.44
2023-11-27T01:58:58.178Z,5.38
2023-11-27T02:01:27.183Z,5.41
2023-11-27T02:03:55.584Z,5.39
2023-11-27T02:06:23.845Z,5.37
2023-11-27T02:08:51.846Z,5.37
2023-11-27T02:11:20.618Z,5.37
2023-11-27T02:13:50.524Z,5.34
2023-11-27T02:16:18.885Z,5.33
2023-11-27T02:18:47.402Z,5.32
2023-11-27T02:21:15.359Z,5.29
2023-11-27T02:23:44.662Z,5.27
2023-11-27T02:26:12.643Z,5.27
2023-11-27T02:28:41.329Z,5.28
2023-11-27T02:31:09.537Z,5.29
2023-11-27T02:33:39.630Z,5.32
2023-11-27T02:36:08.037Z,5.35
2023-11-27T02:38:37.194Z,5.38
2023-11-27T02:41:07.482Z,5.39
2023-11-27T02:43:36.775Z,5.41
2023-11-27T02:46:04.932Z,5.43
2023-11-27T02:48:33.128Z,5.38
2023-11-27T02:51:01.053Z,5.36
2023-11-27T02:53:29.402Z,5.36
2023-11-27T02:55:57.328Z,5.35
2023-11-27T02:58:26.786Z,5.39
2023-11-27T03:00:54.771Z,5.41
2023-11-27T03:03:22.828Z,5.46
2023-11-27T03:05:51.771Z,5.48
2023-11-27T03:08:19.918Z,5.45
2023-11-27T03:10:48.143Z,5.46
2023-11-27T03:13:16.238Z,5.51
2023-11-27T03:15:45.753Z,5.54
2023-11-27T03:18:15.038Z,5.54
2023-11-27T03:20:42.979Z,5.57
2023-11-27T03:23:11.012Z,5.56
2023-11-27T03:25:38.960Z,5.56
2023-11-27T03:28:08.276Z,5.47
2023-11-27T03:30:36.285Z,5.41
2023-11-27T03:33:05.601Z,5.41
2023-11-27T03:35:33.597Z,5.27
2023-11-27T03:38:01.640Z,5.36
2023-11-27T03:40:29.575Z,5.15
2023-11-27T03:42:58.874Z,5.27
2023-11-27T03:45:27.080Z,5.06
2023-11-27T03:47:55.046Z,4.77
2023-11-27T03:50:25.528Z,4.89
2023-11-27T03:52:55.581Z,4.75
2023-11-27T03:55:23.953Z,4.66
2023-11-27T03:57:51.990Z,4.65
2023-11-27T04:00:20.734Z,4.80
2023-11-27T04:02:48.921Z,4.88
2023-11-27T04:05:18.062Z,4.98
2023-11-27T04:07:47.349Z,4.97
2023-11-27T04:10:17.382Z,4.93
2023-11-27T04:12:46.387Z,4.70
2023-11-27T04:15:17.509Z,4.49
2023-11-27T04:17:45.757Z,4.61
2023-11-27T04:20:15.784Z,4.58
2023-11-27T04:22:44.084Z,4.44
2023-11-27T04:25:13.538Z,4.21
2023-11-27T04:27:41.518Z,4.16
2023-11-27T04:30:10.227Z,4.08
2023-11-27T04:32:39.060Z,4.24
2023-11-27T04:35:07.413Z,4.22
2023-11-27T04:37:35.871Z,4.26
2023-11-27T04:40:03.771Z,4.33
2023-11-27T04:42:34.444Z,4.32
2023-11-27T04:45:02.681Z,4.10
2023-11-27T04:47:30.623Z,3.82
2023-11-27T04:49:58.539Z,3.94
2023-11-27T04:52:26.502Z,4.21
2023-11-27T04:54:54.434Z,4.35
2023-11-27T04:57:22.655Z,4.45
2023-11-27T04:59:51.995Z,4.59
2023-11-27T05:02:20.146Z,4.64
2023-11-27T05:04:48.206Z,4.72
2023-11-27T05:07:16.194Z,4.78
2023-11-27T05:09:44.138Z,4.85
2023-11-27T05:12:17.769Z,4.87
2023-11-27T05:14:53.555Z,4.88
2023-11-27T05:17:21.563Z,4.82
2023-11-27T05:19:49.717Z,4.81
2023-11-27T05:22:17.712Z,4.84
2023-11-27T05:24:45.612Z,4.84
2023-11-27T05:27:13.622Z,4.85
2023-11-27T05:29:41.579Z,4.86
2023-11-27T05:32:10.869Z,4.78
2023-11-27T05:34:38.949Z,4.32
2023-11-27T05:37:09.065Z,4.43
2023-11-27T05:39:38.480Z,4.62
2023-11-27T05:42:07.005Z,4.28
2023-11-27T05:44:35.506Z,4.46
2023-11-27T05:47:03.471Z,4.63
2023-11-27T05:49:33.099Z,4.51
2023-11-27T05:52:01.358Z,4.38
2023-11-27T05:54:29.507Z,4.44
2023-11-27T05:56:57.465Z,4.59
2023-11-27T05:59:25.442Z,4.32
2023-11-27T06:01:54.197Z,4.42
2023-11-27T06:04:22.269Z,4.28
2023-11-27T06:06:51.500Z,4.52
2023-11-27T06:09:19.749Z,4.59
2023-11-27T06:11:47.813Z,4.72
2023-11-27T06:14:15.807Z,4.82
2023-11-27T06:16:44.103Z,4.83
2023-11-27T06:19:12.270Z,4.80
2023-11-27T06:21:40.229Z,4.77
2023-11-27T06:24:10.362Z,4.78
2023-11-27T06:26:38.266Z,4.83
2023-11-27T06:29:06.333Z,4.87
2023-11-27T06:31:34.608Z,4.93
2023-11-27T06:34:02.751Z,5.07
2023-11-27T06:36:30.861Z,5.06
2023-11-27T06:38:58.945Z,5.05
2023-11-27T06:41:28.344Z,5.00
2023-11-27T06:43:57.143Z,4.98
2023-11-27T06:46:25.206Z,4.96
2023-11-27T06:48:53.290Z,4.97
2023-11-27T06:51:21.339Z,5.01
2023-11-27T06:53:49.363Z,5.08
2023-11-27T06:56:17.318Z,5.11
2023-11-27T06:58:46.643Z,5.10
2023-11-27T07:01:14.729Z,5.11
2023-11-27T07:03:42.741Z,5.15
2023-11-27T07:06:11.517Z,5.21
2023-11-27T07:08:39.484Z,5.26
2023-11-27T07:11:10.043Z,5.28
2023-11-27T07:13:37.987Z,5.31
2023-11-27T07:16:08.456Z,5.33
2023-11-27T07:18:36.557Z,5.42
2023-11-27T07:21:04.862Z,5.57
2023-11-27T07:23:33.345Z,5.71
2023-11-27T07:26:01.320Z,5.84
2023-11-27T07:28:29.337Z,6.00
2023-11-27T07:30:57.521Z,6.10
2023-11-27T07:33:27.600Z,6.24
2023-11-27T07:35:55.557Z,6.44
2023-11-27T07:38:23.516Z,6.73
2023-11-27T07:40:51.782Z,7.15
2023-11-27T07:43:20.138Z,7.69
2023-11-27T07:45:48.083Z,8.28
2023-11-27T07:48:16.197Z,9.23
2023-11-27T07:50:45.472Z,10.49
2023-11-27T07:53:13.436Z,11.77
2023-11-27T07:55:41.980Z,12.72
2023-11-27T07:58:10.124Z,13.49
2023-11-27T08:00:38.136Z,14.20
2023-11-27T08:03:06.080Z,14.84
2023-11-27T08:05:34.264Z,15.25
2023-11-27T08:08:03.732Z,15.51
2023-11-27T08:10:31.914Z,15.33
2023-11-27T08:13:00.010Z,15.48
2023-11-27T08:15:27.978Z,15.52
2023-11-27T08:17:57.677Z,15.65
2023-11-27T08:20:29.627Z,15.65
2023-11-27T08:22:59.433Z,15.71
2023-11-27T08:25:29.592Z,15.48
2023-11-27T08:27:58.747Z,15.63
2023-11-27T08:30:29.408Z,15.11
2023-11-27T08:32:58.612Z,15.17
2023-11-27T08:35:26.627Z,14.91
2023-11-27T08:37:54.836Z,14.65
2023-11-27T08:40:22.897Z,14.47
2023-11-27T08:42:52.212Z,14.32
2023-11-27T08:45:20.900Z,14.26
2023-11-27T08:47:52.566Z,14.07
2023-11-27T08:50:25.669Z,14.34
2023-11-27T08:52:58.070Z,14.57
2023-11-27T08:55:29.779Z,14.63
2023-11-27T08:58:02.186Z,14.57
2023-11-27T09:00:30.603Z,14.47
2023-11-27T09:03:01.044Z,14.73
2023-11-27T09:05:32.475Z,15.15
2023-11-27T09:08:07.966Z,15.54
2023-11-27T09:10:37.474Z,15.86
2023-11-27T09:13:08.042Z,16.12
2023-11-27T09:15:36.758Z,16.75
2023-11-27T09:18:04.983Z,17.55
2023-11-27T09:20:33.080Z,17.91
2023-11-27T09:23:01.687Z,17.84
2023-11-27T09:25:29.731Z,17.88
2023-11-27T09:27:58.347Z,17.53
2023-11-27T09:30:27.722Z,17.06
2023-11-27T09:32:56.293Z,17.66
2023-11-27T09:35:24.908Z,17.53
2023-11-27T09:37:52.871Z,17.28
2023-11-27T09:40:22.848Z,17.21
2023-11-27T09:42:52.044Z,16.85
2023-11-27T09:45:21.432Z,16.42
2023-11-27T09:47:52.722Z,16.04
2023-11-27T09:50:23.457Z,15.71
2023-11-27T09:52:54.570Z,15.32
2023-11-27T09:55:23.113Z,15.18
2023-11-27T09:57:51.666Z,15.07
2023-11-27T10:00:23.498Z,14.55
2023-11-27T10:02:53.470Z,14.31
2023-11-27T10:05:23.647Z,14.24
2023-11-27T10:07:54.575Z,13.93
2023-11-27T10:10:27.411Z,13.59
2023-11-27T10:13:02.115Z,13.44
2023-11-27T10:15:32.761Z,13.46
2023-11-27T10:18:06.063Z,13.45
2023-11-27T10:20:36.414Z,13.22
2023-11-27T10:23:06.554Z,13.05
2023-11-27T10:25:35.642Z,13.04
2023-11-27T10:28:04.092Z,12.84
2023-11-27T10:30:32.215Z,12.60
2023-11-27T10:33:02.531Z,12.53
2023-11-27T10:35:33.557Z,12.05
2023-11-27T10:38:02.753Z,12.08
2023-11-27T10:40:30.945Z,12.05
2023-11-27T10:43:01.752Z,11.97
2023-11-27T10:45:31.219Z,11.97
2023-11-27T10:48:04.734Z,12.00
2023-11-27T10:50:34.137Z,11.83
2023-11-27T10:53:02.650Z,11.69
2023-11-27T10:55:32.926Z,11.55
2023-11-27T10:58:01.867Z,11.58
2023-11-27T11:00:33.931Z,11.32
2023-11-27T11:03:08.300Z,11.25
2023-11-27T11:05:46.594Z,10.59
2023-11-27T11:08:15.072Z,10.76
2023-11-27T11:10:43.667Z,10.89
2023-11-27T11:13:14.840Z,10.10
2023-11-27T11:15:52.333Z,9.90
2023-11-27T11:18:35.989Z,9.91
2023-11-27T11:21:34.654Z,9.97
2023-11-27T11:24:16.408Z,9.89
2023-11-27T11:26:59.724Z,9.34
2023-11-27T11:29:34.560Z,9.30
2023-11-27T11:32:06.088Z,8.92
2023-11-27T11:34:40.642Z,9.13
2023-11-27T11:37:13.703Z,9.14
2023-11-27T11:39:46.968Z,8.62
2023-11-27T11:42:18.980Z,8.76
2023-11-27T11:45:15.429Z,9.13
2023-11-27T11:47:43.634Z,9.26
2023-11-27T11:50:28.480Z,9.55
2023-11-27T11:52:58.983Z,9.61
2023-11-27T11:55:33.019Z,9.65
2023-11-27T11:58:05.474Z,9.74
2023-11-27T12:00:45.402Z,9.99
2023-11-27T12:03:17.863Z,10.25
2023-11-27T12:05:51.323Z,10.32
2023-11-27T12:08:20.005Z,10.27
2023-11-27T12:10:48.459Z,10.22
2023-11-27T12:13:16.906Z,10.21
2023-11-27T12:15:44.871Z,10.24
2023-11-27T12:18:14.459Z,10.30
2023-11-27T12:20:44.146Z,10.27
2023-11-27T12:23:14.638Z,10.29
2023-11-27T12:25:43.352Z,10.26
2023-11-27T12:28:11.880Z,10.10
2023-11-27T12:30:41.572Z,10.19
2023-11-27T12:33:10.927Z,10.17
2023-11-27T12:35:39.845Z,10.01
2023-11-27T12:38:09.329Z,10.00
2023-11-27T12:40:38.682Z,10.04
2023-11-27T12:43:08.782Z,10.01
2023-11-27T12:45:38.187Z,10.00
2023-11-27T12:48:09.084Z,9.99
2023-11-27T12:50:41.090Z,9.92
2023-11-27T12:53:10.623Z,9.92
2023-11-27T12:55:50.302Z,9.90
2023-11-27T12:58:21.812Z,9.95
2023-11-27T13:00:52.610Z,9.79
2023-11-27T13:03:22.605Z,9.60
2023-11-27T13:05:54.406Z,9.56
2023-11-27T13:08:25.810Z,9.38
2023-11-27T13:10:58.817Z,9.20
2023-11-27T13:13:27.490Z,9.16
2023-11-27T13:15:59.605Z,9.11
2023-11-27T13:18:31.454Z,9.12
2023-11-27T13:20:59.777Z,9.13
2023-11-27T13:23:28.310Z,9.16
2023-11-27T13:26:11.142Z,9.13
2023-11-27T13:28:43.690Z,9.02
2023-11-27T13:31:13.986Z,9.07
2023-11-27T13:33:42.022Z,9.03
2023-11-27T13:36:19.114Z,8.97
2023-11-27T13:38:47.395Z,8.53
2023-11-27T13:41:16.884Z,7.97
2023-11-27T13:43:45.540Z,8.24
2023-11-27T13:46:13.632Z,8.24
2023-11-27T13:48:42.144Z,8.15
2023-11-27T13:51:15.203Z,8.13
2023-11-27T13:53:43.367Z,8.12
2023-11-27T13:56:19.567Z,8.06
2023-11-27T13:58:53.366Z,7.98
2023-11-27T14:01:22.481Z,8.05
2023-11-27T14:03:50.867Z,7.59
2023-11-27T14:06:20.321Z,7.56
2023-11-27T14:08:53.235Z,7.56
2023-11-27T14:11:32.321Z,7.47
2023-11-27T14:14:11.030Z,7.55
2023-11-27T14:16:45.864Z,7.34
2023-11-27T14:19:46.674Z,7.29
2023-11-27T14:22:37.615Z,7.27
2023-11-27T14:25:26.882Z,7.03
2023-11-27T14:28:12.825Z,6.86
2023-11-27T14:30:42.223Z,6.87
2023-11-27T14:33:11.048Z,6.72
2023-11-27T14:35:39.058Z,6.89
2023-11-27T14:38:07.358Z,6.97
2023-11-27T14:40:35.951Z,6.87
2023-11-27T14:43:03.909Z,6.83
2023-11-27T14:45:32.912Z,6.61
2023-11-27T14:48:02.307Z,6.50
2023-11-27T14:50:33.660Z,6.50
2023-11-27T14:53:02.122Z,6.56
2023-11-27T14:55:34.172Z,6.67
2023-11-27T14:58:02.439Z,6.81
2023-11-27T15:00:32.176Z,6.81
2023-11-27T15:03:02.239Z,6.58
2023-11-27T15:05:30.675Z,5.90
2023-11-27T15:08:00.522Z,6.04
2023-11-27T15:10:29.254Z,6.12
2023-11-27T15:12:57.267Z,5.89
2023-11-27T15:15:27.605Z,5.67
2023-11-27T15:17:55.817Z,5.92
2023-11-27T15:20:27.875Z,6.00
2023-11-27T15:22:58.118Z,5.95
2023-11-27T15:25:26.253Z,5.97
2023-11-27T15:27:55.258Z,6.17
2023-11-27T15:30:25.349Z,6.27
2023-11-27T15:32:53.295Z,6.10
2023-11-27T15:35:22.639Z,6.14
2023-11-27T15:37:52.454Z,5.91
2023-11-27T15:40:22.563Z,5.95
2023-11-27T15:42:50.545Z,5.99
2023-11-27T15:45:18.613Z,5.97
2023-11-27T15:47:46.798Z,5.82
2023-11-27T15:50:15.476Z,5.99
2023-11-27T15:52:46.734Z,5.50
2023-11-27T15:55:16.433Z,5.22
2023-11-27T15:57:45.878Z,5.22
2023-11-27T16:00:15.814Z,5.47
2023-11-27T16:02:44.054Z,5.58
2023-11-27T16:05:12.394Z,5.77
2023-11-27T16:07:41.257Z,5.50
2023-11-27T16:10:14.838Z,5.49
2023-11-27T16:12:44.943Z,5.84
2023-11-27T16:15:15.755Z,6.09
2023-11-27T16:20:18.372Z,6.21
2023-11-27T16:22:46.937Z,6.29
2023-11-27T16:25:17.369Z,6.43
2023-11-27T16:27:47.775Z,6.54
2023-11-27T16:30:22.125Z,6.69
2023-11-27T16:32:51.229Z,6.78
2023-11-27T16:35:23.331Z,6.84
2023-11-27T16:37:52.905Z,6.92
2023-11-27T16:40:22.160Z,6.97
2023-11-27T16:42:54.349Z,7.01
2023-11-27T16:45:24.501Z,7.01
2023-11-27T16:47:53.330Z,7.07
2023-11-27T16:50:25.825Z,7.12
2023-11-27T16:52:56.086Z,7.13
2023-11-27T16:55:26.424Z,7.17
2023-11-27T16:58:00.597Z,7.20
2023-11-27T17:00:32.769Z,7.26
2023-11-27T17:03:04.883Z,7.32
2023-11-27T17:05:34.660Z,7.38
2023-11-27T17:08:04.411Z,7.44
2023-11-27T17:10:40.604Z,7.51
2023-11-27T17:13:12.031Z,7.56
2023-11-27T17:15:44.489Z,7.63
2023-11-27T17:18:13.751Z,7.70
2023-11-27T17:20:42.786Z,7.76
2023-11-27T17:23:12.476Z,7.79
2023-11-27T17:25:41.455Z,7.78
2023-11-27T17:28:13.161Z,7.75
2023-11-27T17:30:44.337Z,7.69
2023-11-27T17:33:13.606Z,7.63
2023-11-27T17:35:41.559Z,7.61
2023-11-27T17:38:10.240Z,7.56
2023-11-27T17:40:38.985Z,7.48
2023-11-27T17:43:07.630Z,7.43
2023-11-27T17:45:42.777Z,7.37
2023-11-27T17:48:11.601Z,7.29
2023-11-27T17:50:39.673Z,7.21
2023-11-27T17:53:08.539Z,7.15
2023-11-27T17:55:45.174Z,7.09
2023-11-27T17:58:16.914Z,7.05
2023-11-27T18:00:47.793Z,7.02
2023-11-27T18:03:18.359Z,7.01
2023-11-27T18:05:46.443Z,6.96
2023-11-27T18:08:14.600Z,6.91
2023-11-27T18:10:42.707Z,6.85
2023-11-27T18:13:11.541Z,6.80
2023-11-27T18:15:39.600Z,6.78
2023-11-27T18:18:08.963Z,6.72
2023-11-27T18:20:37.701Z,6.62
2023-11-27T18:23:06.201Z,6.62
2023-11-27T18:25:34.905Z,6.59
2023-11-27T18:28:04.832Z,6.57
2023-11-27T18:30:33.118Z,6.53
2023-11-27T18:33:01.427Z,6.52
2023-11-27T18:35:30.914Z,6.49
2023-11-27T18:37:59.097Z,6.44
2023-11-27T18:40:28.308Z,6.42
2023-11-27T18:42:56.330Z,6.40
2023-11-27T18:45:24.807Z,6.36
2023-11-27T18:47:53.242Z,6.31
2023-11-27T18:50:21.468Z,6.29
2023-11-27T18:52:50.826Z,6.27
2023-11-27T18:55:19.994Z,6.30
2023-11-27T18:57:51.330Z,6.36
2023-11-27T19:00:22.543Z,6.39
2023-11-27T19:02:50.728Z,6.44
2023-11-27T19:05:18.758Z,6.52
2023-11-27T19:07:48.496Z,6.46
2023-11-27T19:10:19.284Z,6.51
2023-11-27T19:12:47.278Z,6.46
2023-11-27T19:15:15.979Z,6.49
2023-11-27T19:17:44.088Z,6.41
2023-11-27T19:20:12.699Z,6.30
2023-11-27T19:22:41.043Z,6.20
2023-11-27T19:25:11.664Z,6.16
2023-11-27T19:27:41.544Z,6.07
2023-11-27T19:30:10.994Z,6.07
2023-11-27T19:32:40.752Z,5.83
2023-11-27T19:35:10.981Z,5.84
2023-11-27T19:37:39.298Z,5.85
2023-11-27T19:40:09.663Z,5.87
2023-11-27T19:42:37.750Z,5.89
2023-11-27T19:45:10.005Z,5.93
2023-11-27T19:47:38.401Z,5.75
2023-11-27T19:50:09.767Z,5.81
2023-11-27T19:52:37.947Z,5.84
2023-11-27T19:55:07.764Z,5.80
2023-11-27T19:57:35.941Z,5.77
2023-11-27T20:00:04.498Z,5.80
2023-11-27T20:02:39.991Z,5.84
2023-11-27T20:05:09.728Z,5.84
2023-11-27T20:07:38.253Z,5.92
2023-11-27T20:10:09.305Z,5.94
2023-11-27T20:12:37.339Z,5.93
2023-11-27T20:15:06.218Z,5.96
2023-11-27T20:17:35.210Z,6.00
2023-11-27T20:20:05.326Z,6.00
2023-11-27T20:22:33.685Z,6.06
2023-11-27T20:25:01.622Z,6.10
2023-11-27T20:27:30.022Z,6.12
2023-11-27T20:29:58.089Z,6.16
2023-11-27T20:32:26.351Z,6.14
2023-11-27T20:34:54.318Z,6.13
2023-11-27T20:37:25.027Z,6.14
2023-11-27T20:39:53.985Z,6.17
2023-11-27T20:42:22.045Z,6.22
2023-11-27T20:44:54.332Z,6.24
2023-11-27T20:47:24.833Z,6.27
2023-11-27T20:49:55.850Z,6.31
2023-11-27T20:52:26.038Z,6.37
2023-11-27T20:54:56.044Z,6.39
2023-11-27T20:57:24.057Z,6.41
2023-11-27T20:59:52.696Z,6.35
2023-11-27T21:02:20.816Z,6.37
2023-11-27T21:04:48.977Z,6.02
2023-11-27T21:07:18.110Z,6.13
2023-11-27T21:09:47.436Z,6.22
2023-11-27T21:12:15.461Z,6.28
2023-11-27T21:14:43.526Z,6.30
2023-11-27T21:17:11.564Z,6.32
2023-11-27T21:19:39.911Z,6.36
2023-11-27T21:22:08.089Z,6.37
2023-11-27T21:24:36.349Z,6.37
2023-11-27T21:27:09.783Z,6.38
2023-11-27T21:29:37.936Z,6.09
2023-11-27T21:32:06.657Z,5.94
2023-11-27T21:34:34.805Z,6.04
2023-11-27T21:37:02.760Z,6.14
2023-11-27T21:39:30.778Z,6.17
2023-11-27T21:41:58.914Z,6.12
2023-11-27T21:44:28.771Z,6.17
2023-11-27T21:46:56.880Z,6.22
2023-11-27T21:49:26.101Z,6.17
2023-11-27T21:51:56.157Z,6.12
2023-11-27T21:54:24.395Z,6.18
2023-11-27T21:56:52.516Z,6.23
2023-11-27T21:59:20.601Z,6.24
2023-11-27T22:01:50.298Z,6.28
2023-11-27T22:04:18.672Z,6.28
2023-11-27T22:06:47.594Z,6.35
2023-11-27T22:09:15.958Z,6.39
2023-11-27T22:11:44.113Z,6.41
2023-11-27T22:14:13.243Z,6.42
2023-11-27T22:16:41.314Z,6.39
2023-11-27T22:19:10.807Z,6.28
2023-11-27T22:21:38.932Z,6.34
2023-11-27T22:24:07.713Z,6.38
2023-11-27T22:26:41.501Z,6.30
2023-11-27T22:29:09.564Z,6.33
2023-11-27T22:31:37.563Z,6.39
2023-11-27T22:34:05.717Z,6.41
2023-11-27T22:36:34.962Z,6.42
2023-11-27T22:39:03.413Z,6.45
2023-11-27T22:41:31.301Z,6.44
2023-11-27T22:43:59.363Z,6.46
2023-11-27T22:46:29.215Z,6.48
2023-11-27T22:48:57.363Z,6.48
2023-11-27T22:51:25.351Z,6.48
2023-11-27T22:53:54.650Z,6.49
2023-11-27T22:56:22.601Z,6.52
2023-11-27T22:58:51.324Z,6.55
2023-11-27T23:01:20.883Z,6.57
2023-11-27T23:03:48.938Z,6.59
2023-11-27T23:06:25.494Z,6.63
2023-11-27T23:09:03.688Z,6.63
2023-11-27T23:11:31.659Z,6.66
2023-11-27T23:13:59.758Z,6.71
2023-11-27T23:16:28.937Z,6.79
2023-11-27T23:18:56.858Z,6.84
2023-11-27T23:21:24.954Z,6.89
2023-11-27T23:23:52.888Z,6.91
2023-11-27T23:26:22.494Z,6.97
2023-11-27T23:28:50.476Z,7.01
2023-11-27T23:31:18.411Z,7.05
2023-11-27T23:33:46.359Z,7.11
2023-11-27T23:36:14.314Z,7.13
2023-11-27T23:38:42.307Z,7.17
2023-11-27T23:41:10.330Z,7.18
2023-11-27T23:43:39.603Z,7.21
2023-11-27T23:46:08.147Z,7.25
2023-11-27T23:48:36.224Z,7.26
2023-11-27T23:51:04.252Z,7.28
2023-11-27T23:53:32.190Z,7.31
2023-11-27T23:56:00.238Z,7.30
2023-11-27T23:58:30.698Z,7.35
